This is the latest recevied weather packets stored in our database for station/object HS1AL-1. If no packets are shown the sender has not sent any weather packets the latest 1 day(s).
| Time | Temp. | Humidity | Pressure | Rain* | Wind** | Luminosity | Snow |
|---|---|---|---|---|---|---|---|
| 1836274449 | 33.33° C | 60% | 1007 hPa | - | 0 m/s | 0 W/m² | - |
| 1778036026 | 37.22° C | 45% | 1008 hPa | - | 0 m/s | 0 W/m² | - |
| 1778035101 | 37.22° C | 45% | 1008 hPa | - | 0 m/s | 0 W/m² | - |
| 1778034170 | 36.67° C | 48% | 1008 hPa | - | 0 m/s | 0 W/m² | - |
| 1778033243 | 36.67° C | 48% | 1008 hPa | - | 0 m/s | 0 W/m² | - |
| 1778032310 | 36.11° C | 50% | 1008 hPa | - | 0 m/s | 0 W/m² | - |
| 1778031379 | 36.67° C | 50% | 1008 hPa | - | 0 m/s | 0 W/m² | - |
| 1778030450 | 36.67° C | 49% | 1008 hPa | - | 0 m/s | 0 W/m² | - |
| 1778029523 | 36.11° C | 49% | 1008 hPa | - | 0 m/s | 0 W/m² | - |
| 1778028596 | 36.11° C | 49% | 1008 hPa | - | 0 m/s | 0 W/m² | - |
| 1778027666 | 35.56° C | 49% | 1008 hPa | - | 0 m/s | 0 W/m² | - |
| 1778026739 | 35.56° C | 50% | 1008 hPa | - | 0 m/s | 0 W/m² | - |
| 1778025807 | 35° C | 51% | 1007 hPa | - | 0 m/s | 0 W/m² | - |
| 1778024882 | 34.44° C | 51% | 1007 hPa | - | 0 m/s | 0 W/m² | - |
| 1778023954 | 34.44° C | 51% | 1007 hPa | - | 0 m/s | 0 W/m² | - |
| 1778023027 | 34.44° C | 51% | 1007 hPa | - | 0 m/s | 0 W/m² | - |
| 1778022101 | 33.89° C | 53% | 1007 hPa | - | 0 m/s | 0 W/m² | - |
| 1778021166 | 34.44° C | 51% | 1006 hPa | - | 0 m/s | 0 W/m² | - |
| 1778020238 | 34.44° C | 50% | 1006 hPa | - | 0 m/s | 0 W/m² | - |
| 1778019310 | 34.44° C | 50% | 1006 hPa | - | 0 m/s | 0 W/m² | - |
| 1778018383 | 34.44° C | 50% | 1006 hPa | - | 0 m/s | 0 W/m² | - |
| 1778017455 | 35° C | 49% | 1006 hPa | - | 0 m/s | 0 W/m² | - |
| 1778016528 | 35° C | 49% | 1006 hPa | - | 0 m/s | 0 W/m² | - |
| 1778015602 | 35° C | 49% | 1006 hPa | - | 0 m/s | 0 W/m² | - |
| 1778014673 | 35° C | 49% | 1006 hPa | - | 0 m/s | 0 W/m² | - |
* Rain since midnight (hover to see other rain measurements)
** Current wind speed in m/s (hover to see current wind gust speed)